sensor_id;sensor_type;location;lat;lon;timestamp;P1;durP1;ratioP1;P2;durP2;ratioP2
5135;SDS011;2586;48.710;9.202;2022-08-01T00:00:00;2.30;;;2.07;;
5135;SDS011;2586;48.710;9.202;2022-08-01T00:02:28;5.93;;;1.50;;
5135;SDS011;2586;48.710;9.202;2022-08-01T00:04:55;3.13;;;1.57;;
5135;SDS011;2586;48.710;9.202;2022-08-01T00:07:21;3.63;;;2.30;;
5135;SDS011;2586;48.710;9.202;2022-08-01T00:09:47;3.00;;;1.87;;
5135;SDS011;2586;48.710;9.202;2022-08-01T00:12:15;4.97;;;2.00;;
5135;SDS011;2586;48.710;9.202;2022-08-01T00:14:41;5.60;;;1.93;;
5135;SDS011;2586;48.710;9.202;2022-08-01T00:17:06;4.37;;;1.67;;
5135;SDS011;2586;48.710;9.202;2022-08-01T00:19:32;5.20;;;1.60;;
5135;SDS011;2586;48.710;9.202;2022-08-01T00:21:58;1.90;;;1.77;;
5135;SDS011;2586;48.710;9.202;2022-08-01T00:24:24;11.00;;;2.13;;
5135;SDS011;2586;48.710;9.202;2022-08-01T00:26:49;15.73;;;2.37;;
5135;SDS011;2586;48.710;9.202;2022-08-01T00:29:15;3.20;;;1.80;;
5135;SDS011;2586;48.710;9.202;2022-08-01T00:31:40;4.00;;;1.73;;
5135;SDS011;2586;48.710;9.202;2022-08-01T00:34:06;2.40;;;1.53;;
5135;SDS011;2586;48.710;9.202;2022-08-01T00:36:32;2.60;;;1.77;;
5135;SDS011;2586;48.710;9.202;2022-08-01T00:38:57;3.30;;;1.83;;
5135;SDS011;2586;48.710;9.202;2022-08-01T00:41:23;2.37;;;1.30;;
5135;SDS011;2586;48.710;9.202;2022-08-01T00:43:48;1.87;;;1.50;;
5135;SDS011;2586;48.710;9.202;2022-08-01T00:46:14;1.90;;;1.80;;
5135;SDS011;2586;48.710;9.202;2022-08-01T00:48:39;1.93;;;1.83;;
5135;SDS011;2586;48.710;9.202;2022-08-01T00:51:05;3.57;;;1.87;;
5135;SDS011;2586;48.710;9.202;2022-08-01T00:53:32;1.80;;;1.70;;
5135;SDS011;2586;48.710;9.202;2022-08-01T00:55:58;1.50;;;1.40;;
5135;SDS011;2586;48.710;9.202;2022-08-01T00:58:24;2.10;;;1.93;;
5135;SDS011;2586;48.710;9.202;2022-08-01T01:00:50;5.03;;;1.93;;
5135;SDS011;2586;48.710;9.202;2022-08-01T01:03:16;5.13;;;2.03;;
5135;SDS011;2586;48.710;9.202;2022-08-01T01:05:50;2.20;;;1.90;;
5135;SDS011;2586;48.710;9.202;2022-08-01T01:08:42;2.27;;;2.07;;
5135;SDS011;2586;48.710;9.202;2022-08-01T01:11:25;2.20;;;1.90;;
5135;SDS011;2586;48.710;9.202;2022-08-01T01:13:54;2.57;;;1.77;;
5135;SDS011;2586;48.710;9.202;2022-08-01T01:16:25;3.57;;;2.20;;
5135;SDS011;2586;48.710;9.202;2022-08-01T01:18:56;1.70;;;1.60;;
5135;SDS011;2586;48.710;9.202;2022-08-01T01:24:21;1.90;;;1.80;;
5135;SDS011;2586;48.710;9.202;2022-08-01T01:30:07;3.73;;;2.00;;
5135;SDS011;2586;48.710;9.202;2022-08-01T01:32:41;2.30;;;2.10;;
5135;SDS011;2586;48.710;9.202;2022-08-01T01:35:14;2.03;;;1.93;;
5135;SDS011;2586;48.710;9.202;2022-08-01T01:37:44;2.20;;;2.00;;
5135;SDS011;2586;48.710;9.202;2022-08-01T01:40:13;1.87;;;1.77;;
5135;SDS011;2586;48.710;9.202;2022-08-01T01:42:40;12.37;;;1.80;;
5135;SDS011;2586;48.710;9.202;2022-08-01T01:45:07;4.60;;;2.00;;
5135;SDS011;2586;48.710;9.202;2022-08-01T01:47:34;2.90;;;1.83;;
5135;SDS011;2586;48.710;9.202;2022-08-01T01:50:01;1.67;;;1.50;;
5135;SDS011;2586;48.710;9.202;2022-08-01T01:52:28;3.63;;;1.70;;
5135;SDS011;2586;48.710;9.202;2022-08-01T01:54:56;2.00;;;1.90;;
5135;SDS011;2586;48.710;9.202;2022-08-01T01:57:23;4.63;;;2.20;;
5135;SDS011;2586;48.710;9.202;2022-08-01T01:59:50;4.93;;;2.83;;
5135;SDS011;2586;48.710;9.202;2022-08-01T02:02:16;2.00;;;1.90;;
5135;SDS011;2586;48.710;9.202;2022-08-01T02:04:45;2.17;;;1.97;;
5135;SDS011;2586;48.710;9.202;2022-08-01T02:07:12;4.87;;;2.10;;
5135;SDS011;2586;48.710;9.202;2022-08-01T02:09:46;2.83;;;2.60;;
5135;SDS011;2586;48.710;9.202;2022-08-01T02:12:12;5.93;;;2.17;;
5135;SDS011;2586;48.710;9.202;2022-08-01T02:14:41;3.57;;;2.20;;
5135;SDS011;2586;48.710;9.202;2022-08-01T02:17:10;4.97;;;2.50;;
5135;SDS011;2586;48.710;9.202;2022-08-01T02:19:37;2.20;;;2.00;;
5135;SDS011;2586;48.710;9.202;2022-08-01T02:22:10;2.40;;;2.20;;
5135;SDS011;2586;48.710;9.202;2022-08-01T02:30:50;8.20;;;2.30;;
5135;SDS011;2586;48.710;9.202;2022-08-01T02:33:19;4.73;;;2.00;;
5135;SDS011;2586;48.710;9.202;2022-08-01T02:35:52;2.40;;;2.30;;
5135;SDS011;2586;48.710;9.202;2022-08-01T02:38:22;5.60;;;2.30;;
5135;SDS011;2586;48.710;9.202;2022-08-01T02:40:49;3.23;;;1.90;;
5135;SDS011;2586;48.710;9.202;2022-08-01T02:43:19;3.47;;;2.50;;
5135;SDS011;2586;48.710;9.202;2022-08-01T02:45:49;3.93;;;1.87;;
5135;SDS011;2586;48.710;9.202;2022-08-01T02:48:18;2.13;;;1.93;;
5135;SDS011;2586;48.710;9.202;2022-08-01T02:50:47;3.67;;;2.17;;
5135;SDS011;2586;48.710;9.202;2022-08-01T02:53:14;4.60;;;2.20;;
5135;SDS011;2586;48.710;9.202;2022-08-01T02:55:43;2.27;;;2.07;;
5135;SDS011;2586;48.710;9.202;2022-08-01T02:58:12;2.23;;;2.13;;
5135;SDS011;2586;48.710;9.202;2022-08-01T03:00:41;8.40;;;2.57;;
5135;SDS011;2586;48.710;9.202;2022-08-01T03:03:09;9.83;;;2.80;;
5135;SDS011;2586;48.710;9.202;2022-08-01T03:05:36;2.67;;;2.57;;
5135;SDS011;2586;48.710;9.202;2022-08-01T03:08:08;4.00;;;2.50;;
5135;SDS011;2586;48.710;9.202;2022-08-01T03:10:35;2.67;;;2.47;;
5135;SDS011;2586;48.710;9.202;2022-08-01T03:13:03;3.03;;;2.83;;
5135;SDS011;2586;48.710;9.202;2022-08-01T03:15:32;3.23;;;2.73;;
5135;SDS011;2586;48.710;9.202;2022-08-01T03:18:00;3.30;;;3.00;;
5135;SDS011;2586;48.710;9.202;2022-08-01T03:20:27;2.77;;;2.57;;
5135;SDS011;2586;48.710;9.202;2022-08-01T03:22:57;6.10;;;2.20;;
5135;SDS011;2586;48.710;9.202;2022-08-01T03:25:28;3.70;;;3.40;;
5135;SDS011;2586;48.710;9.202;2022-08-01T03:27:56;6.50;;;2.73;;
5135;SDS011;2586;48.710;9.202;2022-08-01T03:30:24;2.73;;;2.53;;
5135;SDS011;2586;48.710;9.202;2022-08-01T03:32:51;2.60;;;2.40;;
5135;SDS011;2586;48.710;9.202;2022-08-01T03:35:17;5.27;;;2.80;;
5135;SDS011;2586;48.710;9.202;2022-08-01T03:37:50;2.90;;;2.03;;
5135;SDS011;2586;48.710;9.202;2022-08-01T03:40:38;4.77;;;2.80;;
5135;SDS011;2586;48.710;9.202;2022-08-01T03:43:14;2.67;;;2.47;;
5135;SDS011;2586;48.710;9.202;2022-08-01T03:45:45;2.60;;;2.40;;
5135;SDS011;2586;48.710;9.202;2022-08-01T03:48:16;3.50;;;2.63;;
5135;SDS011;2586;48.710;9.202;2022-08-01T03:50:45;3.10;;;2.80;;
5135;SDS011;2586;48.710;9.202;2022-08-01T03:53:12;2.63;;;2.43;;
5135;SDS011;2586;48.710;9.202;2022-08-01T03:55:39;2.00;;;1.90;;
5135;SDS011;2586;48.710;9.202;2022-08-01T03:58:08;5.53;;;2.50;;
5135;SDS011;2586;48.710;9.202;2022-08-01T04:00:36;2.73;;;2.47;;
5135;SDS011;2586;48.710;9.202;2022-08-01T04:03:06;2.77;;;2.50;;
5135;SDS011;2586;48.710;9.202;2022-08-01T04:05:33;2.87;;;2.33;;
5135;SDS011;2586;48.710;9.202;2022-08-01T04:07:59;3.17;;;2.40;;
5135;SDS011;2586;48.710;9.202;2022-08-01T04:10:26;2.30;;;2.00;;
5135;SDS011;2586;48.710;9.202;2022-08-01T04:12:52;4.10;;;2.83;;
5135;SDS011;2586;48.710;9.202;2022-08-01T04:15:18;9.73;;;2.73;;
5135;SDS011;2586;48.710;9.202;2022-08-01T04:17:45;3.90;;;2.73;;
5135;SDS011;2586;48.710;9.202;2022-08-01T04:20:11;2.80;;;2.70;;
5135;SDS011;2586;48.710;9.202;2022-08-01T04:22:37;6.80;;;2.70;;
5135;SDS011;2586;48.710;9.202;2022-08-01T04:25:09;5.67;;;2.00;;
5135;SDS011;2586;48.710;9.202;2022-08-01T04:27:40;2.00;;;1.90;;
5135;SDS011;2586;48.710;9.202;2022-08-01T04:30:08;6.90;;;2.90;;
5135;SDS011;2586;48.710;9.202;2022-08-01T04:32:35;2.70;;;2.50;;
5135;SDS011;2586;48.710;9.202;2022-08-01T04:35:06;3.17;;;2.43;;
5135;SDS011;2586;48.710;9.202;2022-08-01T04:37:34;4.20;;;2.17;;
5135;SDS011;2586;48.710;9.202;2022-08-01T04:40:02;3.00;;;2.80;;
5135;SDS011;2586;48.710;9.202;2022-08-01T04:42:30;5.53;;;2.33;;
5135;SDS011;2586;48.710;9.202;2022-08-01T04:44:57;14.67;;;3.30;;
5135;SDS011;2586;48.710;9.202;2022-08-01T04:47:23;2.50;;;2.30;;
5135;SDS011;2586;48.710;9.202;2022-08-01T04:49:50;4.00;;;2.80;;
5135;SDS011;2586;48.710;9.202;2022-08-01T04:52:16;9.13;;;2.43;;
5135;SDS011;2586;48.710;9.202;2022-08-01T04:54:42;3.20;;;3.00;;
5135;SDS011;2586;48.710;9.202;2022-08-01T04:57:08;2.13;;;1.93;;
5135;SDS011;2586;48.710;9.202;2022-08-01T04:59:35;2.23;;;2.03;;
5135;SDS011;2586;48.710;9.202;2022-08-01T05:02:10;2.50;;;1.80;;
5135;SDS011;2586;48.710;9.202;2022-08-01T05:04:37;2.87;;;2.30;;
5135;SDS011;2586;48.710;9.202;2022-08-01T05:07:04;2.80;;;2.47;;
5135;SDS011;2586;48.710;9.202;2022-08-01T05:09:30;3.10;;;2.30;;
5135;SDS011;2586;48.710;9.202;2022-08-01T05:11:56;2.50;;;2.40;;
5135;SDS011;2586;48.710;9.202;2022-08-01T05:14:26;2.80;;;2.60;;
5135;SDS011;2586;48.710;9.202;2022-08-01T05:16:52;4.20;;;2.30;;
5135;SDS011;2586;48.710;9.202;2022-08-01T05:19:18;2.97;;;2.67;;
5135;SDS011;2586;48.710;9.202;2022-08-01T05:21:44;2.30;;;2.10;;
5135;SDS011;2586;48.710;9.202;2022-08-01T05:24:10;4.07;;;2.00;;
5135;SDS011;2586;48.710;9.202;2022-08-01T05:26:36;2.37;;;2.17;;
5135;SDS011;2586;48.710;9.202;2022-08-01T05:29:02;2.50;;;2.30;;
5135;SDS011;2586;48.710;9.202;2022-08-01T05:31:28;3.83;;;2.50;;
5135;SDS011;2586;48.710;9.202;2022-08-01T05:33:53;5.73;;;2.90;;
5135;SDS011;2586;48.710;9.202;2022-08-01T05:36:19;4.60;;;2.00;;
5135;SDS011;2586;48.710;9.202;2022-08-01T05:38:45;2.93;;;2.17;;
5135;SDS011;2586;48.710;9.202;2022-08-01T05:41:10;2.40;;;1.90;;
5135;SDS011;2586;48.710;9.202;2022-08-01T05:43:36;4.47;;;2.30;;
5135;SDS011;2586;48.710;9.202;2022-08-01T05:46:02;2.80;;;2.07;;
5135;SDS011;2586;48.710;9.202;2022-08-01T05:48:27;5.80;;;1.93;;
5135;SDS011;2586;48.710;9.202;2022-08-01T05:50:53;2.03;;;1.83;;
5135;SDS011;2586;48.710;9.202;2022-08-01T05:53:19;3.27;;;1.80;;
5135;SDS011;2586;48.710;9.202;2022-08-01T05:55:45;2.60;;;2.20;;
5135;SDS011;2586;48.710;9.202;2022-08-01T05:58:10;1.77;;;1.63;;
5135;SDS011;2586;48.710;9.202;2022-08-01T06:00:36;1.33;;;1.23;;
5135;SDS011;2586;48.710;9.202;2022-08-01T06:03:01;2.93;;;1.87;;
5135;SDS011;2586;48.710;9.202;2022-08-01T06:05:27;2.23;;;1.63;;
5135;SDS011;2586;48.710;9.202;2022-08-01T06:07:53;2.40;;;2.20;;
5135;SDS011;2586;48.710;9.202;2022-08-01T06:10:19;4.60;;;1.80;;
5135;SDS011;2586;48.710;9.202;2022-08-01T06:12:44;3.70;;;2.00;;
5135;SDS011;2586;48.710;9.202;2022-08-01T06:15:10;4.83;;;2.00;;
5135;SDS011;2586;48.710;9.202;2022-08-01T06:17:36;1.73;;;1.63;;
5135;SDS011;2586;48.710;9.202;2022-08-01T06:20:02;2.10;;;2.00;;
5135;SDS011;2586;48.710;9.202;2022-08-01T06:22:28;8.60;;;1.67;;
5135;SDS011;2586;48.710;9.202;2022-08-01T06:24:54;2.07;;;1.87;;
5135;SDS011;2586;48.710;9.202;2022-08-01T06:27:20;4.50;;;1.47;;
5135;SDS011;2586;48.710;9.202;2022-08-01T06:29:45;1.40;;;1.30;;
5135;SDS011;2586;48.710;9.202;2022-08-01T06:32:11;2.20;;;1.30;;
5135;SDS011;2586;48.710;9.202;2022-08-01T06:34:36;3.77;;;1.07;;
5135;SDS011;2586;48.710;9.202;2022-08-01T06:37:02;1.50;;;1.33;;
5135;SDS011;2586;48.710;9.202;2022-08-01T06:39:28;1.53;;;1.40;;
5135;SDS011;2586;48.710;9.202;2022-08-01T06:41:53;2.30;;;1.10;;
5135;SDS011;2586;48.710;9.202;2022-08-01T06:44:19;1.27;;;1.17;;
5135;SDS011;2586;48.710;9.202;2022-08-01T06:46:44;1.30;;;1.20;;
5135;SDS011;2586;48.710;9.202;2022-08-01T06:49:10;7.00;;;6.30;;
5135;SDS011;2586;48.710;9.202;2022-08-01T06:51:35;3.60;;;1.27;;
5135;SDS011;2586;48.710;9.202;2022-08-01T06:54:01;1.17;;;1.07;;
5135;SDS011;2586;48.710;9.202;2022-08-01T06:56:26;1.80;;;0.87;;
5135;SDS011;2586;48.710;9.202;2022-08-01T06:58:52;1.33;;;1.20;;
5135;SDS011;2586;48.710;9.202;2022-08-01T07:01:18;1.03;;;1.03;;
5135;SDS011;2586;48.710;9.202;2022-08-01T07:03:43;1.47;;;1.37;;
5135;SDS011;2586;48.710;9.202;2022-08-01T07:06:09;0.80;;;0.80;;
5135;SDS011;2586;48.710;9.202;2022-08-01T07:08:35;5.63;;;1.67;;
5135;SDS011;2586;48.710;9.202;2022-08-01T07:11:01;3.00;;;1.40;;
5135;SDS011;2586;48.710;9.202;2022-08-01T07:13:28;1.10;;;1.10;;
5135;SDS011;2586;48.710;9.202;2022-08-01T07:15:55;1.43;;;1.00;;
5135;SDS011;2586;48.710;9.202;2022-08-01T07:18:22;3.47;;;1.80;;
5135;SDS011;2586;48.710;9.202;2022-08-01T07:20:48;2.40;;;1.53;;
5135;SDS011;2586;48.710;9.202;2022-08-01T07:23:14;1.23;;;1.13;;
5135;SDS011;2586;48.710;9.202;2022-08-01T07:25:40;1.40;;;1.27;;
5135;SDS011;2586;48.710;9.202;2022-08-01T07:28:06;5.27;;;1.70;;
5135;SDS011;2586;48.710;9.202;2022-08-01T07:30:31;1.20;;;0.80;;
5135;SDS011;2586;48.710;9.202;2022-08-01T07:32:57;1.90;;;1.60;;
5135;SDS011;2586;48.710;9.202;2022-08-01T07:35:22;1.40;;;1.30;;
5135;SDS011;2586;48.710;9.202;2022-08-01T07:37:48;2.30;;;1.20;;
5135;SDS011;2586;48.710;9.202;2022-08-01T07:40:14;1.53;;;1.47;;
5135;SDS011;2586;48.710;9.202;2022-08-01T07:42:41;4.60;;;1.57;;
5135;SDS011;2586;48.710;9.202;2022-08-01T07:45:08;3.10;;;1.67;;
5135;SDS011;2586;48.710;9.202;2022-08-01T07:47:35;2.37;;;1.20;;
5135;SDS011;2586;48.710;9.202;2022-08-01T07:50:02;2.40;;;1.30;;
5135;SDS011;2586;48.710;9.202;2022-08-01T07:52:29;1.40;;;1.37;;
5135;SDS011;2586;48.710;9.202;2022-08-01T07:54:55;1.77;;;1.67;;
5135;SDS011;2586;48.710;9.202;2022-08-01T07:57:21;1.30;;;1.20;;
5135;SDS011;2586;48.710;9.202;2022-08-01T07:59:47;1.47;;;1.10;;
5135;SDS011;2586;48.710;9.202;2022-08-01T08:02:13;2.27;;;1.20;;
5135;SDS011;2586;48.710;9.202;2022-08-01T08:04:39;2.90;;;1.60;;
5135;SDS011;2586;48.710;9.202;2022-08-01T08:07:04;2.03;;;1.80;;
5135;SDS011;2586;48.710;9.202;2022-08-01T08:09:30;1.70;;;1.60;;
5135;SDS011;2586;48.710;9.202;2022-08-01T08:11:56;1.77;;;1.67;;
5135;SDS011;2586;48.710;9.202;2022-08-01T08:14:21;2.37;;;1.67;;
5135;SDS011;2586;48.710;9.202;2022-08-01T08:16:49;3.13;;;1.50;;
5135;SDS011;2586;48.710;9.202;2022-08-01T08:19:15;1.97;;;1.87;;
5135;SDS011;2586;48.710;9.202;2022-08-01T08:21:41;2.13;;;1.60;;
5135;SDS011;2586;48.710;9.202;2022-08-01T08:24:07;5.87;;;1.80;;
5135;SDS011;2586;48.710;9.202;2022-08-01T08:26:45;2.10;;;1.90;;
5135;SDS011;2586;48.710;9.202;2022-08-01T08:29:11;3.47;;;1.73;;
5135;SDS011;2586;48.710;9.202;2022-08-01T08:31:37;3.53;;;1.93;;
5135;SDS011;2586;48.710;9.202;2022-08-01T08:34:02;4.17;;;1.80;;
5135;SDS011;2586;48.710;9.202;2022-08-01T08:36:28;1.97;;;1.50;;
5135;SDS011;2586;48.710;9.202;2022-08-01T08:38:54;4.60;;;2.00;;
5135;SDS011;2586;48.710;9.202;2022-08-01T08:41:19;2.37;;;1.63;;
5135;SDS011;2586;48.710;9.202;2022-08-01T08:43:47;3.93;;;2.07;;
5135;SDS011;2586;48.710;9.202;2022-08-01T08:46:13;2.07;;;1.97;;
5135;SDS011;2586;48.710;9.202;2022-08-01T08:48:40;2.53;;;2.33;;
5135;SDS011;2586;48.710;9.202;2022-08-01T08:51:07;2.53;;;2.33;;
5135;SDS011;2586;48.710;9.202;2022-08-01T08:53:36;6.77;;;2.60;;
5135;SDS011;2586;48.710;9.202;2022-08-01T08:56:04;3.37;;;3.07;;
5135;SDS011;2586;48.710;9.202;2022-08-01T08:58:32;3.93;;;1.73;;
5135;SDS011;2586;48.710;9.202;2022-08-01T09:01:03;4.63;;;2.13;;
5135;SDS011;2586;48.710;9.202;2022-08-01T09:03:30;3.37;;;2.20;;
5135;SDS011;2586;48.710;9.202;2022-08-01T09:05:56;2.20;;;2.00;;
5135;SDS011;2586;48.710;9.202;2022-08-01T09:08:22;1.90;;;1.80;;
5135;SDS011;2586;48.710;9.202;2022-08-01T09:10:48;5.13;;;2.50;;
5135;SDS011;2586;48.710;9.202;2022-08-01T09:13:14;2.37;;;2.20;;
5135;SDS011;2586;48.710;9.202;2022-08-01T09:15:40;5.20;;;2.80;;
5135;SDS011;2586;48.710;9.202;2022-08-01T09:18:08;16.40;;;2.80;;
5135;SDS011;2586;48.710;9.202;2022-08-01T09:20:51;3.60;;;2.07;;
5135;SDS011;2586;48.710;9.202;2022-08-01T09:23:31;2.40;;;2.20;;
5135;SDS011;2586;48.710;9.202;2022-08-01T09:25:58;5.13;;;3.13;;
5135;SDS011;2586;48.710;9.202;2022-08-01T09:28:27;2.87;;;2.67;;
5135;SDS011;2586;48.710;9.202;2022-08-01T09:30:57;5.43;;;2.47;;
5135;SDS011;2586;48.710;9.202;2022-08-01T09:33:23;5.10;;;3.57;;
5135;SDS011;2586;48.710;9.202;2022-08-01T09:35:56;3.30;;;3.00;;
5135;SDS011;2586;48.710;9.202;2022-08-01T09:38:23;6.10;;;3.20;;
5135;SDS011;2586;48.710;9.202;2022-08-01T09:40:54;4.23;;;3.40;;
5135;SDS011;2586;48.710;9.202;2022-08-01T09:43:23;3.60;;;2.93;;
5135;SDS011;2586;48.710;9.202;2022-08-01T09:45:53;5.33;;;3.67;;
5135;SDS011;2586;48.710;9.202;2022-08-01T09:48:20;6.27;;;3.73;;
5135;SDS011;2586;48.710;9.202;2022-08-01T09:50:47;4.50;;;4.20;;
5135;SDS011;2586;48.710;9.202;2022-08-01T09:53:23;4.60;;;4.30;;
5135;SDS011;2586;48.710;9.202;2022-08-01T09:55:48;4.83;;;4.33;;
5135;SDS011;2586;48.710;9.202;2022-08-01T09:58:17;4.53;;;4.13;;
5135;SDS011;2586;48.710;9.202;2022-08-01T10:00:43;4.63;;;3.93;;
5135;SDS011;2586;48.710;9.202;2022-08-01T10:03:25;4.50;;;4.10;;
5135;SDS011;2586;48.710;9.202;2022-08-01T10:05:51;4.10;;;3.60;;
5135;SDS011;2586;48.710;9.202;2022-08-01T10:08:18;3.33;;;3.03;;
5135;SDS011;2586;48.710;9.202;2022-08-01T10:11:10;3.50;;;2.90;;
5135;SDS011;2586;48.710;9.202;2022-08-01T10:13:36;3.83;;;3.33;;
5135;SDS011;2586;48.710;9.202;2022-08-01T10:16:02;4.60;;;3.87;;
5135;SDS011;2586;48.710;9.202;2022-08-01T10:18:31;4.13;;;3.73;;
5135;SDS011;2586;48.710;9.202;2022-08-01T10:20:58;8.33;;;4.10;;
5135;SDS011;2586;48.710;9.202;2022-08-01T10:23:29;4.43;;;4.07;;
5135;SDS011;2586;48.710;9.202;2022-08-01T10:26:02;6.47;;;3.67;;
5135;SDS011;2586;48.710;9.202;2022-08-01T10:28:31;6.33;;;3.97;;
5135;SDS011;2586;48.710;9.202;2022-08-01T10:31:03;7.10;;;4.93;;
5135;SDS011;2586;48.710;9.202;2022-08-01T10:33:29;4.97;;;3.90;;
5135;SDS011;2586;48.710;9.202;2022-08-01T10:35:55;3.70;;;3.50;;
5135;SDS011;2586;48.710;9.202;2022-08-01T10:38:22;6.33;;;3.63;;
5135;SDS011;2586;48.710;9.202;2022-08-01T10:40:51;4.47;;;3.70;;
5135;SDS011;2586;48.710;9.202;2022-08-01T10:43:18;4.17;;;3.80;;
5135;SDS011;2586;48.710;9.202;2022-08-01T10:45:43;7.30;;;3.23;;
5135;SDS011;2586;48.710;9.202;2022-08-01T10:48:12;8.17;;;3.70;;
5135;SDS011;2586;48.710;9.202;2022-08-01T10:50:46;5.17;;;3.30;;
5135;SDS011;2586;48.710;9.202;2022-08-01T10:53:15;5.83;;;3.53;;
5135;SDS011;2586;48.710;9.202;2022-08-01T10:58:28;5.40;;;3.20;;
5135;SDS011;2586;48.710;9.202;2022-08-01T11:06:32;5.30;;;2.60;;
5135;SDS011;2586;48.710;9.202;2022-08-01T11:09:28;2.83;;;2.63;;
5135;SDS011;2586;48.710;9.202;2022-08-01T11:11:59;8.23;;;2.17;;
5135;SDS011;2586;48.710;9.202;2022-08-01T11:14:30;8.03;;;2.80;;
5135;SDS011;2586;48.710;9.202;2022-08-01T11:16:56;2.37;;;2.10;;
5135;SDS011;2586;48.710;9.202;2022-08-01T11:20:04;5.67;;;2.40;;
5135;SDS011;2586;48.710;9.202;2022-08-01T11:26:07;3.50;;;3.20;;
5135;SDS011;2586;48.710;9.202;2022-08-01T11:30:46;2.80;;;2.60;;
5135;SDS011;2586;48.710;9.202;2022-08-01T11:33:16;2.70;;;2.50;;
5135;SDS011;2586;48.710;9.202;2022-08-01T11:38:46;2.13;;;2.03;;
5135;SDS011;2586;48.710;9.202;2022-08-01T11:41:23;4.00;;;2.37;;
5135;SDS011;2586;48.710;9.202;2022-08-01T11:52:28;2.43;;;2.33;;
5135;SDS011;2586;48.710;9.202;2022-08-01T11:54:56;5.70;;;2.43;;
5135;SDS011;2586;48.710;9.202;2022-08-01T11:57:28;2.97;;;2.70;;
5135;SDS011;2586;48.710;9.202;2022-08-01T11:59:56;11.53;;;2.47;;
5135;SDS011;2586;48.710;9.202;2022-08-01T12:02:29;4.23;;;3.00;;
5135;SDS011;2586;48.710;9.202;2022-08-01T12:04:58;2.80;;;2.60;;
5135;SDS011;2586;48.710;9.202;2022-08-01T12:07:31;3.67;;;3.10;;
5135;SDS011;2586;48.710;9.202;2022-08-01T12:10:03;10.00;;;3.20;;
5135;SDS011;2586;48.710;9.202;2022-08-01T12:12:37;26.33;;;3.30;;
5135;SDS011;2586;48.710;9.202;2022-08-01T12:15:14;12.80;;;2.60;;
5135;SDS011;2586;48.710;9.202;2022-08-01T12:17:53;9.97;;;2.57;;
5135;SDS011;2586;48.710;9.202;2022-08-01T12:20:22;2.33;;;2.13;;
5135;SDS011;2586;48.710;9.202;2022-08-01T12:22:52;6.90;;;2.13;;
5135;SDS011;2586;48.710;9.202;2022-08-01T12:25:19;2.73;;;1.97;;
5135;SDS011;2586;48.710;9.202;2022-08-01T12:27:45;7.70;;;2.40;;
5135;SDS011;2586;48.710;9.202;2022-08-01T12:30:16;3.53;;;2.30;;
5135;SDS011;2586;48.710;9.202;2022-08-01T12:32:45;10.60;;;2.67;;
5135;SDS011;2586;48.710;9.202;2022-08-01T12:37:51;2.20;;;2.03;;
5135;SDS011;2586;48.710;9.202;2022-08-01T12:42:47;11.67;;;2.90;;
5135;SDS011;2586;48.710;9.202;2022-08-01T12:45:18;6.73;;;2.13;;
5135;SDS011;2586;48.710;9.202;2022-08-01T12:47:46;3.60;;;2.20;;
5135;SDS011;2586;48.710;9.202;2022-08-01T12:50:14;4.20;;;1.87;;
5135;SDS011;2586;48.710;9.202;2022-08-01T12:52:41;2.50;;;2.40;;
5135;SDS011;2586;48.710;9.202;2022-08-01T12:55:08;4.47;;;2.00;;
5135;SDS011;2586;48.710;9.202;2022-08-01T12:57:40;3.90;;;2.70;;
5135;SDS011;2586;48.710;9.202;2022-08-01T13:00:13;2.43;;;2.23;;
5135;SDS011;2586;48.710;9.202;2022-08-01T13:02:42;3.03;;;1.80;;
5135;SDS011;2586;48.710;9.202;2022-08-01T13:05:08;2.10;;;2.00;;
5135;SDS011;2586;48.710;9.202;2022-08-01T13:07:39;4.10;;;2.37;;
5135;SDS011;2586;48.710;9.202;2022-08-01T13:10:13;2.37;;;1.63;;
5135;SDS011;2586;48.710;9.202;2022-08-01T13:12:40;9.93;;;2.53;;
5135;SDS011;2586;48.710;9.202;2022-08-01T13:15:16;3.07;;;2.20;;
5135;SDS011;2586;48.710;9.202;2022-08-01T13:17:41;2.20;;;2.10;;
5135;SDS011;2586;48.710;9.202;2022-08-01T13:20:07;2.33;;;2.00;;
5135;SDS011;2586;48.710;9.202;2022-08-01T13:22:36;1.87;;;1.77;;
5135;SDS011;2586;48.710;9.202;2022-08-01T13:25:15;9.63;;;2.30;;
5135;SDS011;2586;48.710;9.202;2022-08-01T13:27:41;4.63;;;1.90;;
5135;SDS011;2586;48.710;9.202;2022-08-01T13:30:17;4.40;;;1.93;;
5135;SDS011;2586;48.710;9.202;2022-08-01T13:32:44;2.97;;;2.33;;
5135;SDS011;2586;48.710;9.202;2022-08-01T13:35:25;3.33;;;2.10;;
5135;SDS011;2586;48.710;9.202;2022-08-01T13:37:51;4.60;;;1.93;;
5135;SDS011;2586;48.710;9.202;2022-08-01T13:40:26;5.23;;;2.13;;
5135;SDS011;2586;48.710;9.202;2022-08-01T13:42:53;3.47;;;1.87;;
5135;SDS011;2586;48.710;9.202;2022-08-01T13:45:20;2.73;;;1.73;;
5135;SDS011;2586;48.710;9.202;2022-08-01T13:47:46;3.20;;;1.60;;
5135;SDS011;2586;48.710;9.202;2022-08-01T13:50:11;1.87;;;1.77;;
5135;SDS011;2586;48.710;9.202;2022-08-01T13:52:37;3.30;;;2.00;;
5135;SDS011;2586;48.710;9.202;2022-08-01T13:55:02;3.80;;;2.30;;
5135;SDS011;2586;48.710;9.202;2022-08-01T13:57:28;6.43;;;2.60;;
5135;SDS011;2586;48.710;9.202;2022-08-01T13:59:54;5.23;;;2.00;;
5135;SDS011;2586;48.710;9.202;2022-08-01T14:02:20;5.60;;;2.53;;
5135;SDS011;2586;48.710;9.202;2022-08-01T14:04:46;2.67;;;1.70;;
5135;SDS011;2586;48.710;9.202;2022-08-01T14:07:11;4.20;;;2.63;;
5135;SDS011;2586;48.710;9.202;2022-08-01T14:09:37;8.23;;;2.00;;
5135;SDS011;2586;48.710;9.202;2022-08-01T14:12:03;6.90;;;2.40;;
5135;SDS011;2586;48.710;9.202;2022-08-01T14:14:29;3.63;;;2.37;;
5135;SDS011;2586;48.710;9.202;2022-08-01T14:16:55;2.00;;;1.90;;
5135;SDS011;2586;48.710;9.202;2022-08-01T14:19:21;1.93;;;1.83;;
5135;SDS011;2586;48.710;9.202;2022-08-01T14:21:47;2.93;;;1.97;;
5135;SDS011;2586;48.710;9.202;2022-08-01T14:24:13;3.60;;;1.40;;
5135;SDS011;2586;48.710;9.202;2022-08-01T14:26:38;4.73;;;2.27;;
5135;SDS011;2586;48.710;9.202;2022-08-01T14:29:04;2.87;;;2.10;;
5135;SDS011;2586;48.710;9.202;2022-08-01T14:31:29;2.73;;;2.53;;
5135;SDS011;2586;48.710;9.202;2022-08-01T14:33:55;5.43;;;4.00;;
5135;SDS011;2586;48.710;9.202;2022-08-01T14:36:21;6.10;;;2.83;;
5135;SDS011;2586;48.710;9.202;2022-08-01T14:38:47;10.53;;;3.73;;
5135;SDS011;2586;48.710;9.202;2022-08-01T14:41:15;3.57;;;2.47;;
5135;SDS011;2586;48.710;9.202;2022-08-01T14:43:41;2.40;;;2.07;;
5135;SDS011;2586;48.710;9.202;2022-08-01T14:46:07;3.40;;;2.00;;
5135;SDS011;2586;48.710;9.202;2022-08-01T14:48:34;7.67;;;6.90;;
5135;SDS011;2586;48.710;9.202;2022-08-01T14:51:00;2.73;;;2.63;;
5135;SDS011;2586;48.710;9.202;2022-08-01T14:53:27;1.80;;;1.70;;
5135;SDS011;2586;48.710;9.202;2022-08-01T14:55:53;3.33;;;2.20;;
5135;SDS011;2586;48.710;9.202;2022-08-01T14:58:19;1.73;;;1.63;;
5135;SDS011;2586;48.710;9.202;2022-08-01T15:00:45;1.77;;;1.67;;
5135;SDS011;2586;48.710;9.202;2022-08-01T15:03:10;2.40;;;1.50;;
5135;SDS011;2586;48.710;9.202;2022-08-01T15:05:36;3.70;;;2.50;;
5135;SDS011;2586;48.710;9.202;2022-08-01T15:08:02;5.53;;;1.80;;
5135;SDS011;2586;48.710;9.202;2022-08-01T15:10:28;3.23;;;1.60;;
5135;SDS011;2586;48.710;9.202;2022-08-01T15:12:54;3.30;;;1.20;;
5135;SDS011;2586;48.710;9.202;2022-08-01T15:15:20;4.67;;;2.00;;
5135;SDS011;2586;48.710;9.202;2022-08-01T15:17:46;2.50;;;2.30;;
5135;SDS011;2586;48.710;9.202;2022-08-01T15:20:11;5.13;;;2.50;;
5135;SDS011;2586;48.710;9.202;2022-08-01T15:22:37;3.30;;;2.10;;
5135;SDS011;2586;48.710;9.202;2022-08-01T15:25:03;3.60;;;2.23;;
5135;SDS011;2586;48.710;9.202;2022-08-01T15:27:29;1.93;;;1.83;;
5135;SDS011;2586;48.710;9.202;2022-08-01T15:29:55;1.83;;;1.53;;
5135;SDS011;2586;48.710;9.202;2022-08-01T15:32:21;1.77;;;1.60;;
5135;SDS011;2586;48.710;9.202;2022-08-01T15:34:47;8.10;;;1.60;;
5135;SDS011;2586;48.710;9.202;2022-08-01T15:37:13;2.17;;;1.70;;
5135;SDS011;2586;48.710;9.202;2022-08-01T15:39:39;1.50;;;1.40;;
5135;SDS011;2586;48.710;9.202;2022-08-01T15:42:12;1.90;;;1.80;;
5135;SDS011;2586;48.710;9.202;2022-08-01T15:44:39;6.10;;;1.67;;
5135;SDS011;2586;48.710;9.202;2022-08-01T15:47:05;2.00;;;1.70;;
5135;SDS011;2586;48.710;9.202;2022-08-01T15:49:31;1.90;;;1.80;;
5135;SDS011;2586;48.710;9.202;2022-08-01T15:51:57;4.50;;;1.93;;
5135;SDS011;2586;48.710;9.202;2022-08-01T15:54:23;4.00;;;1.70;;
5135;SDS011;2586;48.710;9.202;2022-08-01T15:56:49;3.07;;;1.97;;
5135;SDS011;2586;48.710;9.202;2022-08-01T15:59:15;1.57;;;1.47;;
5135;SDS011;2586;48.710;9.202;2022-08-01T16:01:41;1.90;;;1.80;;